createdAt,value
2023-02-23T00:00:57.164Z,71.33
2023-02-23T00:01:57.169Z,71.63
2023-02-23T00:02:57.252Z,71.63
2023-02-23T00:03:58.163Z,71.43
2023-02-23T00:04:57.123Z,71.43
2023-02-23T00:05:58.130Z,71.43
2023-02-23T00:06:57.122Z,71.22
2023-02-23T00:07:57.096Z,71.22
2023-02-23T00:08:57.051Z,71.26
2023-02-23T00:09:57.061Z,72.04
2023-02-23T00:10:57.079Z,71.63
2023-02-23T00:11:57.024Z,71.94
2023-02-23T00:12:57.036Z,72.14
2023-02-23T00:13:57.029Z,72.14
2023-02-23T00:14:56.996Z,71.84
2023-02-23T00:15:58.048Z,71.84
2023-02-23T00:16:57.026Z,71.73
2023-02-23T00:17:57.995Z,71.73
2023-02-23T00:18:57.015Z,71.63
2023-02-23T00:19:56.942Z,71.84
2023-02-23T00:20:57.952Z,71.63
2023-02-23T00:21:56.923Z,71.63
2023-02-23T00:22:56.968Z,71.63
2023-02-23T00:23:56.965Z,71.43
2023-02-23T00:24:57.877Z,71.63
2023-02-23T00:25:57.865Z,71.53
2023-02-23T00:26:56.867Z,71.53
2023-02-23T00:27:56.876Z,71.53
2023-02-23T00:28:56.838Z,71.43
2023-02-23T00:29:56.843Z,71.63
2023-02-23T00:30:58.479Z,71.73
2023-02-23T00:31:56.938Z,71.43
2023-02-23T00:32:56.792Z,71.84
2023-02-23T00:33:56.820Z,71.73
2023-02-23T00:34:56.795Z,71.73
2023-02-23T00:35:56.798Z,71.53
2023-02-23T00:36:56.810Z,71.73
2023-02-23T00:37:56.742Z,71.84
2023-02-23T00:38:56.900Z,72.04
2023-02-23T00:39:56.764Z,72.04
2023-02-23T00:40:56.713Z,71.73
2023-02-23T00:41:56.715Z,71.73
2023-02-23T00:42:56.721Z,72.14
2023-02-23T00:43:56.683Z,71.73
2023-02-23T00:44:56.748Z,71.53
2023-02-23T00:45:56.662Z,71.63
2023-02-23T00:46:56.656Z,71.63
2023-02-23T00:47:56.647Z,71.73
2023-02-23T00:48:57.642Z,71.63
2023-02-23T00:49:57.629Z,71.22
2023-02-23T00:50:56.613Z,71.63
2023-02-23T00:51:56.575Z,72.04
2023-02-23T00:52:56.589Z,71.53
2023-02-23T00:53:56.609Z,71.46
2023-02-23T00:54:56.620Z,71.63
2023-02-23T00:55:56.565Z,71.56
2023-02-23T00:56:56.535Z,71.94
2023-02-23T00:57:56.565Z,71.77
2023-02-23T00:58:57.510Z,71.56
2023-02-23T00:59:56.503Z,71.53
2023-02-23T01:00:56.502Z,71.56
2023-02-23T01:01:56.954Z,71.36
2023-02-23T01:02:57.472Z,71.46
2023-02-23T01:03:56.476Z,71.97
2023-02-23T01:04:56.456Z,72.07
2023-02-23T01:05:56.461Z,71.77
2023-02-23T01:06:57.456Z,71.67
2023-02-23T01:07:56.921Z,71.87
2023-02-23T01:08:56.398Z,71.87
2023-02-23T01:09:56.401Z,71.84
2023-02-23T01:10:56.386Z,72.07
2023-02-23T01:11:57.398Z,71.56
2023-02-23T01:12:56.386Z,71.77
2023-02-23T01:13:56.358Z,72.07
2023-02-23T01:14:56.334Z,71.87
2023-02-23T01:15:56.370Z,71.87
2023-02-23T01:16:56.319Z,71.46
2023-02-23T01:17:57.326Z,71.46
2023-02-23T01:18:56.306Z,71.56
2023-02-23T01:19:56.316Z,71.67
2023-02-23T01:20:56.267Z,71.53
2023-02-23T01:21:56.275Z,71.56
2023-02-23T01:22:56.236Z,71.56
2023-02-23T01:23:57.222Z,71.67
2023-02-23T01:24:56.222Z,71.46
2023-02-23T01:25:57.217Z,71.77
2023-02-23T01:26:56.211Z,71.94
2023-02-23T01:27:56.187Z,72.28
2023-02-23T01:28:57.166Z,72.17
2023-02-23T01:29:56.164Z,72.07
2023-02-23T01:30:56.287Z,72.07
2023-02-23T01:31:56.270Z,72.07
2023-02-23T01:32:57.148Z,71.87
2023-02-23T01:33:56.152Z,72.14
2023-02-23T01:34:56.127Z,71.77
2023-02-23T01:35:56.117Z,71.97
2023-02-23T01:36:56.072Z,71.77
2023-02-23T01:37:56.089Z,72.17
2023-02-23T01:38:56.063Z,71.97
2023-02-23T01:39:56.069Z,71.97
2023-02-23T01:40:56.037Z,71.87
2023-02-23T01:41:57.062Z,71.56
2023-02-23T01:42:56.012Z,72.00
2023-02-23T01:43:55.990Z,72.00
2023-02-23T01:44:57.052Z,72.28
2023-02-23T01:45:57.045Z,72.41
2023-02-23T01:46:56.020Z,72.58
2023-02-23T01:47:55.965Z,72.07
2023-02-23T01:48:55.958Z,71.80
2023-02-23T01:49:55.967Z,71.77
2023-02-23T01:50:56.968Z,72.38
2023-02-23T01:51:55.970Z,71.97
2023-02-23T01:52:55.925Z,71.70
2023-02-23T01:53:55.914Z,72.31
2023-02-23T01:54:55.902Z,72.00
2023-02-23T01:55:55.885Z,72.41
2023-02-23T01:56:56.906Z,72.31
2023-02-23T01:57:55.879Z,72.38
2023-02-23T01:58:55.823Z,72.41
2023-02-23T01:59:55.842Z,72.31
2023-02-23T02:00:55.807Z,72.31
2023-02-23T02:01:55.853Z,72.00
2023-02-23T02:02:55.829Z,72.21
2023-02-23T02:03:55.776Z,72.21
2023-02-23T02:04:55.835Z,72.62
2023-02-23T02:05:56.385Z,72.31
2023-02-23T02:06:55.743Z,72.62
2023-02-23T02:07:55.772Z,72.31
2023-02-23T02:08:55.756Z,72.00
2023-02-23T02:09:55.703Z,72.11
2023-02-23T02:10:56.729Z,72.11
2023-02-23T02:11:55.702Z,71.91
2023-02-23T02:12:55.729Z,72.21
2023-02-23T02:13:56.700Z,72.55
2023-02-23T02:14:56.674Z,72.62
2023-02-23T02:15:56.672Z,72.41
2023-02-23T02:16:55.634Z,72.00
2023-02-23T02:17:55.610Z,72.21
2023-02-23T02:18:55.618Z,72.34
2023-02-23T02:19:55.622Z,72.21
2023-02-23T02:20:56.393Z,72.00
2023-02-23T02:21:55.580Z,72.41
2023-02-23T02:22:56.563Z,72.31
2023-02-23T02:23:56.580Z,72.34
2023-02-23T02:24:55.581Z,72.11
2023-02-23T02:25:55.544Z,72.55
2023-02-23T02:26:55.581Z,71.91
2023-02-23T02:27:55.505Z,72.82
2023-02-23T02:28:55.523Z,71.80
2023-02-23T02:29:55.482Z,72.31
2023-02-23T02:30:55.522Z,72.11
2023-02-23T02:31:55.560Z,72.31
2023-02-23T02:32:56.457Z,72.21
2023-02-23T02:33:55.493Z,72.31
2023-02-23T02:34:55.453Z,72.21
2023-02-23T02:35:55.477Z,72.41
2023-02-23T02:36:55.426Z,72.11
2023-02-23T02:37:55.418Z,72.62
2023-02-23T02:38:55.389Z,71.91
2023-02-23T02:39:56.438Z,72.62
2023-02-23T02:40:55.386Z,71.80
2023-02-23T02:41:55.867Z,72.45
2023-02-23T02:42:55.362Z,72.82
2023-02-23T02:43:56.334Z,72.41
2023-02-23T02:44:55.327Z,72.62
2023-02-23T02:45:55.378Z,72.11
2023-02-23T02:46:55.358Z,72.31
2023-02-23T02:47:55.304Z,72.55
2023-02-23T02:48:56.269Z,71.94
2023-02-23T02:49:56.252Z,72.24
2023-02-23T02:50:55.268Z,72.45
2023-02-23T02:51:55.249Z,72.14
2023-02-23T02:52:55.221Z,72.14
2023-02-23T02:53:55.241Z,72.65
2023-02-23T02:54:56.218Z,72.04
2023-02-23T02:55:56.213Z,73.06
2023-02-23T02:56:55.209Z,72.75
2023-02-23T02:57:56.179Z,72.86
2023-02-23T02:58:55.160Z,72.96
2023-02-23T02:59:55.172Z,73.06
2023-02-23T03:00:55.164Z,72.75
2023-02-23T03:01:56.325Z,72.96
2023-02-23T03:02:56.140Z,73.20
2023-02-23T03:03:56.114Z,73.10
2023-02-23T03:04:55.130Z,72.99
2023-02-23T03:05:55.105Z,73.30
2023-02-23T03:06:55.104Z,73.30
2023-02-23T03:07:55.063Z,73.50
2023-02-23T03:08:56.070Z,73.27
2023-02-23T03:09:55.048Z,73.40
2023-02-23T03:10:55.056Z,73.47
2023-02-23T03:11:56.080Z,73.36
2023-02-23T03:12:55.077Z,73.27
2023-02-23T03:13:55.000Z,73.16
2023-02-23T03:14:55.007Z,73.16
2023-02-23T03:15:55.035Z,73.57
2023-02-23T03:16:54.985Z,73.36
2023-02-23T03:17:54.970Z,73.47
2023-02-23T03:18:54.959Z,73.27
2023-02-23T03:19:54.958Z,73.16
2023-02-23T03:20:55.934Z,72.14
2023-02-23T03:21:54.919Z,72.75
2023-02-23T03:22:54.909Z,72.86
2023-02-23T03:23:54.880Z,72.86
2023-02-23T03:24:54.890Z,72.86
2023-02-23T03:25:54.875Z,72.96
2023-02-23T03:26:54.845Z,72.65
2023-02-23T03:27:55.891Z,72.65
2023-02-23T03:28:54.835Z,72.34
2023-02-23T03:29:54.834Z,72.86
2023-02-23T03:30:54.844Z,73.10
2023-02-23T03:31:55.965Z,73.20
2023-02-23T03:32:54.789Z,72.89
2023-02-23T03:33:54.820Z,72.48
2023-02-23T03:34:54.792Z,73.06
2023-02-23T03:35:54.744Z,73.16
2023-02-23T03:36:54.745Z,73.20
2023-02-23T03:37:54.753Z,73.16
2023-02-23T03:38:55.725Z,73.16
2023-02-23T03:39:54.732Z,73.27
2023-02-23T03:40:54.739Z,73.16
2023-02-23T03:41:54.691Z,73.36
2023-02-23T03:42:55.667Z,73.06
2023-02-23T03:43:54.684Z,72.55
2023-02-23T03:44:54.690Z,72.52
2023-02-23T03:45:55.681Z,72.34
2023-02-23T03:46:54.654Z,72.72
2023-02-23T03:47:54.624Z,72.82
2023-02-23T03:48:54.608Z,72.92
2023-02-23T03:49:54.589Z,72.72
2023-02-23T03:50:54.607Z,73.13
2023-02-23T03:51:55.609Z,72.72
2023-02-23T03:52:54.558Z,73.03
2023-02-23T03:53:54.554Z,73.33
2023-02-23T03:54:54.548Z,72.82
2023-02-23T03:55:54.556Z,72.82
2023-02-23T03:56:54.526Z,73.03
2023-02-23T03:57:54.549Z,72.72
2023-02-23T03:58:55.500Z,73.03
2023-02-23T03:59:54.493Z,72.82
2023-02-23T04:00:54.506Z,72.92
2023-02-23T04:01:54.580Z,73.13
2023-02-23T04:02:54.472Z,73.03
2023-02-23T04:03:55.448Z,73.19
2023-02-23T04:04:54.446Z,72.89
2023-02-23T04:05:54.408Z,72.62
2023-02-23T04:06:54.441Z,72.79
2023-02-23T04:07:55.409Z,72.99
2023-02-23T04:08:54.404Z,72.58
2023-02-23T04:09:54.374Z,72.82
2023-02-23T04:10:54.373Z,72.62
2023-02-23T04:11:54.344Z,72.99
2023-02-23T04:12:55.363Z,72.62
2023-02-23T04:13:54.384Z,72.21
2023-02-23T04:14:54.342Z,72.69
2023-02-23T04:15:54.323Z,72.11
2023-02-23T04:16:54.294Z,71.87
2023-02-23T04:17:55.294Z,72.48
2023-02-23T04:18:54.261Z,72.58
2023-02-23T04:19:55.294Z,72.58
2023-02-23T04:20:54.330Z,72.69
2023-02-23T04:21:54.242Z,71.97
2023-02-23T04:22:55.255Z,72.14
2023-02-23T04:23:54.268Z,72.58
2023-02-23T04:24:54.197Z,72.07
2023-02-23T04:25:54.208Z,72.28
2023-02-23T04:26:54.204Z,72.58
2023-02-23T04:27:54.171Z,71.77
2023-02-23T04:28:54.181Z,72.17
2023-02-23T04:29:55.260Z,72.38
2023-02-23T04:30:55.212Z,72.48
2023-02-23T04:31:55.256Z,72.58
2023-02-23T04:32:54.152Z,72.45
2023-02-23T04:33:54.095Z,72.28
2023-02-23T04:34:54.098Z,72.58
2023-02-23T04:35:55.113Z,71.77
2023-02-23T04:36:54.084Z,72.17
2023-02-23T04:37:54.081Z,72.17
2023-02-23T04:38:54.052Z,72.04
2023-02-23T04:39:54.038Z,72.17
2023-02-23T04:40:54.060Z,72.69
2023-02-23T04:41:55.047Z,72.17
2023-02-23T04:42:54.041Z,72.58
2023-02-23T04:43:54.008Z,71.87
2023-02-23T04:44:55.001Z,71.84
2023-02-23T04:45:54.027Z,72.79
2023-02-23T04:46:53.962Z,72.28
2023-02-23T04:47:53.972Z,72.28
2023-02-23T04:48:53.971Z,71.87
2023-02-23T04:49:53.955Z,72.38
2023-02-23T04:50:53.945Z,71.97
2023-02-23T04:51:53.914Z,72.58
2023-02-23T04:52:53.907Z,72.07
2023-02-23T04:53:53.897Z,72.79
2023-02-23T04:54:53.898Z,72.07
2023-02-23T04:55:53.853Z,72.75
2023-02-23T04:56:54.889Z,72.75
2023-02-23T04:57:53.843Z,72.14
2023-02-23T04:58:53.833Z,72.55
2023-02-23T04:59:53.817Z,72.55
2023-02-23T05:00:53.833Z,72.65
2023-02-23T05:01:53.840Z,72.45
2023-02-23T05:02:53.813Z,72.65
2023-02-23T05:03:53.793Z,71.84
2023-02-23T05:04:53.773Z,72.96
2023-02-23T05:05:53.758Z,71.84
2023-02-23T05:06:53.752Z,72.24
2023-02-23T05:07:53.785Z,72.55
2023-02-23T05:08:53.725Z,72.45
2023-02-23T05:09:53.697Z,72.24
2023-02-23T05:10:54.720Z,72.45
2023-02-23T05:11:53.693Z,72.24
2023-02-23T05:12:53.697Z,72.14
2023-02-23T05:13:53.711Z,71.73
2023-02-23T05:14:53.650Z,72.34
2023-02-23T05:15:54.685Z,72.65
2023-02-23T05:16:53.639Z,72.75
2023-02-23T05:17:53.627Z,72.34
2023-02-23T05:18:53.621Z,72.55
2023-02-23T05:19:53.717Z,72.96
2023-02-23T05:20:53.593Z,72.65
2023-02-23T05:21:53.587Z,72.04
2023-02-23T05:22:53.553Z,72.34
2023-02-23T05:23:53.553Z,72.96
2023-02-23T05:24:57.314Z,72.75
2023-02-23T05:25:53.534Z,72.65
2023-02-23T05:26:53.526Z,71.84
2023-02-23T05:27:53.507Z,72.45
2023-02-23T05:28:53.501Z,72.45
2023-02-23T05:29:53.501Z,72.45
2023-02-23T05:30:53.755Z,72.04
2023-02-23T05:31:54.659Z,72.07
2023-02-23T05:32:54.441Z,72.65
2023-02-23T05:33:54.471Z,73.19
2023-02-23T05:34:54.414Z,72.79
2023-02-23T05:35:53.456Z,72.48
2023-02-23T05:36:53.398Z,72.48
2023-02-23T05:37:53.417Z,72.38
2023-02-23T05:38:53.384Z,72.24
2023-02-23T05:39:54.376Z,72.69
2023-02-23T05:40:53.360Z,72.38
2023-02-23T05:41:53.381Z,72.69
2023-02-23T05:42:53.344Z,72.65
2023-02-23T05:43:53.327Z,72.65
2023-02-23T05:44:54.308Z,72.86
2023-02-23T05:45:53.348Z,72.86
2023-02-23T05:46:53.303Z,72.65
2023-02-23T05:47:54.337Z,73.10
2023-02-23T05:48:54.267Z,73.10
2023-02-23T05:49:53.260Z,72.96
2023-02-23T05:50:53.249Z,73.10
2023-02-23T05:51:54.247Z,73.19
2023-02-23T05:52:53.239Z,72.96
2023-02-23T05:53:53.215Z,73.16
2023-02-23T05:54:54.224Z,72.86
2023-02-23T05:55:53.194Z,72.86
2023-02-23T05:56:53.171Z,72.45
2023-02-23T05:57:53.173Z,72.75
2023-02-23T05:58:53.187Z,72.99
2023-02-23T05:59:53.134Z,72.99
2023-02-23T06:00:53.182Z,72.79
2023-02-23T06:01:53.147Z,72.28
2023-02-23T06:02:53.218Z,73.06
2023-02-23T06:03:53.266Z,72.99
2023-02-23T06:04:53.109Z,72.79
2023-02-23T06:05:53.070Z,72.82
2023-02-23T06:06:53.113Z,72.79
2023-02-23T06:07:53.100Z,72.69
2023-02-23T06:08:53.107Z,72.38
2023-02-23T06:09:54.023Z,72.48
2023-02-23T06:10:54.024Z,72.48
2023-02-23T06:11:53.013Z,72.79
2023-02-23T06:12:53.010Z,72.99
2023-02-23T06:13:53.011Z,72.79
2023-02-23T06:14:52.984Z,72.69
2023-02-23T06:15:53.060Z,72.17
2023-02-23T06:16:53.029Z,72.79
2023-02-23T06:17:52.967Z,72.79
2023-02-23T06:18:52.976Z,72.38
2023-02-23T06:19:52.914Z,72.38
2023-02-23T06:20:53.959Z,72.79
2023-02-23T06:21:52.914Z,72.69
2023-02-23T06:22:52.933Z,73.30
2023-02-23T06:23:53.013Z,72.48
2023-02-23T06:24:52.879Z,72.69
2023-02-23T06:25:52.859Z,73.30
2023-02-23T06:26:52.859Z,72.89
2023-02-23T06:27:52.843Z,73.30
2023-02-23T06:28:52.827Z,72.99
2023-02-23T06:29:52.842Z,72.89
2023-02-23T06:30:53.909Z,73.10
2023-02-23T06:31:53.920Z,72.99
2023-02-23T06:32:52.793Z,72.75
2023-02-23T06:33:52.766Z,72.07
2023-02-23T06:34:52.751Z,72.58
2023-02-23T06:35:52.864Z,71.97
2023-02-23T06:36:52.737Z,72.38
2023-02-23T06:37:52.714Z,72.86
2023-02-23T06:38:52.723Z,72.79
2023-02-23T06:39:52.714Z,72.69
2023-02-23T06:40:52.747Z,73.50
2023-02-23T06:42:00.328Z,72.75
2023-02-23T06:42:52.669Z,73.06
2023-02-23T06:43:52.665Z,72.55
2023-02-23T06:44:52.649Z,72.86
2023-02-23T06:45:52.641Z,72.86
2023-02-23T06:46:52.692Z,72.45
2023-02-23T06:47:53.614Z,72.75
2023-02-23T06:48:52.606Z,72.75
2023-02-23T06:49:52.614Z,72.75
2023-02-23T06:50:52.708Z,72.65
2023-02-23T06:51:52.562Z,72.75
2023-02-23T06:52:52.549Z,73.06
2023-02-23T06:53:52.556Z,73.16
2023-02-23T06:54:52.531Z,72.65
2023-02-23T06:55:52.570Z,72.75
2023-02-23T06:56:52.533Z,72.65
2023-02-23T06:57:52.497Z,72.14
2023-02-23T06:58:52.506Z,73.06
2023-02-23T06:59:52.476Z,72.55
2023-02-23T07:00:52.477Z,72.75
2023-02-23T07:01:52.477Z,73.06
2023-02-23T07:02:52.436Z,73.16
2023-02-23T07:03:53.530Z,73.27
2023-02-23T07:04:52.426Z,73.36
2023-02-23T07:05:52.432Z,73.47
2023-02-23T07:06:52.395Z,73.06
2023-02-23T07:07:52.446Z,73.27
2023-02-23T07:08:52.396Z,73.50
2023-02-23T07:09:52.364Z,73.06
2023-02-23T07:10:52.360Z,73.27
2023-02-23T07:11:52.409Z,73.16
2023-02-23T07:12:52.344Z,73.16
2023-02-23T07:13:52.338Z,73.03
2023-02-23T07:14:52.335Z,73.03
2023-02-23T07:15:52.336Z,73.03
2023-02-23T07:16:52.304Z,73.43
2023-02-23T07:17:52.371Z,73.23
2023-02-23T07:18:52.279Z,73.33
2023-02-23T07:19:52.270Z,73.03
2023-02-23T07:20:52.296Z,73.13
2023-02-23T07:21:52.233Z,72.92
2023-02-23T07:22:52.263Z,72.72
2023-02-23T07:23:52.247Z,72.41
2023-02-23T07:24:52.216Z,73.13
2023-02-23T07:25:53.178Z,72.62
2023-02-23T07:26:53.240Z,72.82
2023-02-23T07:27:52.195Z,72.79
2023-02-23T07:28:54.140Z,72.58
2023-02-23T07:29:52.166Z,72.92
2023-02-23T07:30:52.272Z,72.92
2023-02-23T07:31:53.232Z,73.03
2023-02-23T07:32:52.772Z,72.99
2023-02-23T07:33:52.170Z,72.82
2023-02-23T07:34:53.983Z,72.79
2023-02-23T07:35:52.072Z,72.82
2023-02-23T07:36:53.128Z,72.69
2023-02-23T07:37:52.076Z,73.19
2023-02-23T07:38:53.165Z,73.03
2023-02-23T07:39:52.072Z,72.58
2023-02-23T07:40:53.042Z,72.48
2023-02-23T07:41:52.036Z,72.69
2023-02-23T07:42:52.041Z,72.82
2023-02-23T07:43:53.077Z,72.52
2023-02-23T07:44:52.095Z,72.00
2023-02-23T07:45:52.079Z,72.00
2023-02-23T07:46:51.996Z,72.38
2023-02-23T07:47:51.984Z,73.23
2023-02-23T07:48:51.948Z,73.13
2023-02-23T07:49:51.931Z,72.99
2023-02-23T07:50:51.911Z,73.10
2023-02-23T07:51:51.922Z,73.10
2023-02-23T07:52:51.929Z,72.99
2023-02-23T07:53:51.906Z,73.10
2023-02-23T07:54:51.905Z,73.10
2023-02-23T07:55:51.861Z,72.99
2023-02-23T07:56:51.850Z,72.79
2023-02-23T07:57:51.878Z,72.99
2023-02-23T07:58:51.836Z,73.10
2023-02-23T07:59:51.861Z,72.58
2023-02-23T08:00:51.888Z,72.89
2023-02-23T08:01:51.839Z,72.89
2023-02-23T08:02:51.789Z,72.99
2023-02-23T08:03:52.817Z,72.48
2023-02-23T08:04:51.772Z,72.65
2023-02-23T08:05:51.776Z,72.55
2023-02-23T08:06:51.743Z,72.86
2023-02-23T08:07:51.817Z,72.45
2023-02-23T08:08:51.741Z,72.14
2023-02-23T08:09:52.728Z,72.01
2023-02-23T08:10:52.734Z,72.41
2023-02-23T08:11:51.711Z,72.11
2023-02-23T08:12:52.759Z,72.21
2023-02-23T08:13:51.716Z,72.01
2023-02-23T08:14:51.667Z,72.01
2023-02-23T08:15:51.776Z,72.21
2023-02-23T08:16:51.889Z,72.11
2023-02-23T08:17:51.656Z,71.91
2023-02-23T08:18:51.664Z,72.62
2023-02-23T08:19:51.657Z,71.91
2023-02-23T08:20:51.603Z,72.11
2023-02-23T08:21:51.615Z,72.17
2023-02-23T08:22:51.578Z,71.67
2023-02-23T08:23:51.595Z,71.97
2023-02-23T08:24:51.736Z,72.08
2023-02-23T08:25:51.806Z,71.97
2023-02-23T08:26:51.537Z,71.77
2023-02-23T08:27:51.503Z,71.47
2023-02-23T08:28:52.511Z,71.87
2023-02-23T08:29:51.527Z,71.77
2023-02-23T08:30:51.694Z,71.87
2023-02-23T08:31:51.673Z,72.08
2023-02-23T08:32:51.624Z,72.08
2023-02-23T08:33:51.474Z,71.56
2023-02-23T08:34:51.475Z,72.25
2023-02-23T08:35:51.407Z,72.34
2023-02-23T08:36:51.480Z,71.64
2023-02-23T08:37:52.405Z,72.14
2023-02-23T08:38:51.396Z,71.53
2023-02-23T08:39:51.410Z,71.53
2023-02-23T08:40:51.374Z,71.84
2023-02-23T08:41:51.421Z,71.70
2023-02-23T08:42:51.353Z,71.60
2023-02-23T08:43:51.360Z,71.30
2023-02-23T08:44:51.319Z,71.50
2023-02-23T08:45:51.528Z,71.09
2023-02-23T08:46:51.311Z,71.19
2023-02-23T08:47:52.413Z,71.09
2023-02-23T08:48:51.400Z,71.09
2023-02-23T08:49:51.271Z,71.26
2023-02-23T08:50:52.298Z,70.65
2023-02-23T08:51:51.270Z,70.55
2023-02-23T08:52:51.214Z,70.86
2023-02-23T08:53:52.317Z,71.06
2023-02-23T08:54:51.203Z,70.86
2023-02-23T08:55:51.270Z,70.75
2023-02-23T08:56:51.187Z,70.52
2023-02-23T08:57:51.195Z,71.06
2023-02-23T08:58:51.185Z,71.73
2023-02-23T08:59:51.222Z,71.33
2023-02-23T09:00:51.166Z,70.72
2023-02-23T09:01:51.152Z,70.25
2023-02-23T09:02:51.126Z,70.21
2023-02-23T09:03:52.177Z,70.31
2023-02-23T09:04:51.117Z,70.82
2023-02-23T09:05:51.182Z,70.82
2023-02-23T09:06:51.130Z,70.31
2023-02-23T09:07:51.066Z,70.21
2023-02-23T09:08:51.073Z,70.52
2023-02-23T09:09:51.054Z,70.72
2023-02-23T09:10:51.094Z,70.59
2023-02-23T09:11:51.012Z,70.42
2023-02-23T09:12:51.034Z,70.38
2023-02-23T09:13:51.009Z,70.28
2023-02-23T09:14:51.051Z,70.08
2023-02-23T09:15:51.052Z,69.95
2023-02-23T09:16:50.973Z,69.64
2023-02-23T09:17:50.952Z,69.64
2023-02-23T09:18:51.019Z,69.23
2023-02-23T09:19:50.954Z,68.93
2023-02-23T09:20:50.973Z,68.42
2023-02-23T09:21:50.978Z,68.93
2023-02-23T09:22:50.889Z,69.34
2023-02-23T09:23:50.878Z,68.39
2023-02-23T09:24:50.909Z,68.49
2023-02-23T09:25:50.871Z,68.39
2023-02-23T09:26:50.865Z,68.08
2023-02-23T09:27:50.879Z,67.78
2023-02-23T09:28:50.827Z,67.75
2023-02-23T09:29:50.878Z,67.24
2023-02-23T09:30:50.894Z,67.14
2023-02-23T09:31:50.947Z,67.55
2023-02-23T09:32:50.792Z,67.95
2023-02-23T09:33:51.831Z,67.03
2023-02-23T09:34:50.756Z,67.21
2023-02-23T09:35:50.815Z,67.51
2023-02-23T09:36:50.771Z,67.11
2023-02-23T09:37:50.751Z,67.11
2023-02-23T09:38:50.798Z,66.30
2023-02-23T09:39:51.737Z,67.08
2023-02-23T09:40:50.690Z,67.61
2023-02-23T09:41:50.770Z,67.31
2023-02-23T09:42:50.672Z,67.34
2023-02-23T09:43:50.670Z,68.26
2023-02-23T09:44:50.805Z,68.46
2023-02-23T09:45:50.675Z,68.15
2023-02-23T09:46:50.696Z,68.02
2023-02-23T09:47:50.654Z,67.00
2023-02-23T09:48:50.608Z,67.44
2023-02-23T09:49:50.706Z,67.55
2023-02-23T09:50:50.615Z,67.55
2023-02-23T09:51:50.603Z,68.05
2023-02-23T09:52:50.567Z,67.95
2023-02-23T09:53:50.917Z,67.34
2023-02-23T09:54:50.547Z,67.88
2023-02-23T09:55:50.541Z,67.58
2023-02-23T09:56:50.574Z,67.34
2023-02-23T09:57:51.520Z,67.44
2023-02-23T09:58:50.530Z,67.51
2023-02-23T09:59:50.479Z,67.72
2023-02-23T10:00:50.683Z,67.58
2023-02-23T10:01:51.576Z,67.00
2023-02-23T10:02:50.459Z,67.58
2023-02-23T10:03:50.469Z,67.38
2023-02-23T10:04:50.659Z,67.18
2023-02-23T10:05:50.428Z,66.47
2023-02-23T10:06:50.428Z,66.47
2023-02-23T10:07:50.409Z,66.57
2023-02-23T10:08:50.473Z,65.62
2023-02-23T10:09:51.375Z,65.93
2023-02-23T10:10:50.383Z,65.73
2023-02-23T10:11:50.360Z,66.24
2023-02-23T10:12:51.200Z,66.24
2023-02-23T10:13:50.366Z,66.13
2023-02-23T10:14:50.318Z,65.96
2023-02-23T10:15:50.356Z,66.27
2023-02-23T10:16:51.314Z,66.77
2023-02-23T10:17:51.324Z,66.47
2023-02-23T10:18:50.358Z,66.97
2023-02-23T10:19:50.307Z,66.27
2023-02-23T10:20:50.269Z,66.80
2023-02-23T10:21:50.313Z,67.21
2023-02-23T10:22:50.321Z,66.88
2023-02-23T10:23:50.254Z,67.08
2023-02-23T10:24:50.253Z,66.47
2023-02-23T10:25:50.202Z,66.33
2023-02-23T10:26:50.210Z,66.64
2023-02-23T10:27:51.224Z,65.83
2023-02-23T10:28:51.180Z,66.03
2023-02-23T10:29:50.193Z,66.06
2023-02-23T10:30:50.267Z,66.37
2023-02-23T10:31:50.246Z,66.06
2023-02-23T10:32:50.145Z,65.96
2023-02-23T10:33:50.111Z,65.66
2023-02-23T10:34:50.098Z,66.67
2023-02-23T10:35:52.423Z,66.40
2023-02-23T10:36:50.141Z,66.47
2023-02-23T10:37:50.073Z,67.18
2023-02-23T10:38:50.667Z,67.48
2023-02-23T10:39:51.075Z,66.27
2023-02-23T10:40:50.240Z,66.44
2023-02-23T10:41:50.058Z,66.24
2023-02-23T10:42:50.007Z,66.33
2023-02-23T10:43:50.019Z,65.73
2023-02-23T10:44:50.024Z,65.73
2023-02-23T10:45:49.987Z,66.44
2023-02-23T10:46:49.971Z,66.13
2023-02-23T10:47:49.984Z,66.30
2023-02-23T10:48:49.975Z,66.00
2023-02-23T10:49:49.924Z,66.41
2023-02-23T10:50:49.963Z,66.20
2023-02-23T10:51:50.924Z,65.09
2023-02-23T10:52:50.992Z,65.70
2023-02-23T10:53:49.948Z,65.19
2023-02-23T10:54:49.908Z,66.10
2023-02-23T10:55:49.906Z,65.39
2023-02-23T10:56:49.866Z,64.79
2023-02-23T10:57:50.875Z,65.19
2023-02-23T10:58:49.833Z,66.13
2023-02-23T10:59:49.847Z,66.20
2023-02-23T11:00:49.812Z,66.00
2023-02-23T11:02:01.966Z,66.00
2023-02-23T11:02:50.819Z,65.87
2023-02-23T11:03:57.730Z,64.96
2023-02-23T11:04:50.830Z,66.07
2023-02-23T11:05:49.793Z,64.86
2023-02-23T11:06:49.733Z,64.15
2023-02-23T11:07:49.764Z,63.64
2023-02-23T11:08:50.709Z,64.04
2023-02-23T11:09:49.739Z,64.58
2023-02-23T11:10:49.708Z,64.28
2023-02-23T11:11:49.742Z,64.28
2023-02-23T11:12:49.689Z,64.18
2023-02-23T11:13:49.695Z,64.99
2023-02-23T11:14:50.705Z,64.15
2023-02-23T11:15:51.173Z,64.15
2023-02-23T11:16:49.658Z,64.35
2023-02-23T11:17:49.655Z,63.64
2023-02-23T11:18:49.673Z,63.24
2023-02-23T11:19:49.616Z,63.24
2023-02-23T11:20:49.608Z,63.61
2023-02-23T11:21:49.624Z,63.81
2023-02-23T11:22:49.591Z,63.75
2023-02-23T11:23:49.602Z,63.81
2023-02-23T11:24:49.590Z,62.93
2023-02-23T11:25:49.639Z,63.24
2023-02-23T11:26:49.536Z,63.47
2023-02-23T11:27:49.686Z,63.54
2023-02-23T11:28:49.556Z,63.54
2023-02-23T11:29:49.535Z,63.81
2023-02-23T11:30:49.485Z,62.53
2023-02-23T11:31:49.752Z,63.31
2023-02-23T11:32:50.503Z,63.51
2023-02-23T11:33:49.474Z,63.41
2023-02-23T11:34:50.427Z,62.53
2023-02-23T11:35:50.422Z,62.73
2023-02-23T11:36:50.431Z,62.46
2023-02-23T11:37:50.457Z,63.87
2023-02-23T11:38:49.394Z,63.84
2023-02-23T11:39:49.433Z,63.27
2023-02-23T11:40:49.353Z,63.54
2023-02-23T11:41:49.378Z,64.02
2023-02-23T11:42:49.403Z,62.43
2023-02-23T11:43:49.334Z,63.24
2023-02-23T11:44:49.377Z,63.41
2023-02-23T11:45:50.391Z,62.30
2023-02-23T11:46:50.387Z,62.50
2023-02-23T11:47:50.294Z,62.93
2023-02-23T11:48:49.288Z,63.31
2023-02-23T11:49:49.279Z,63.51
2023-02-23T11:50:49.272Z,63.71
2023-02-23T11:51:49.305Z,62.19
2023-02-23T11:52:50.253Z,62.37
2023-02-23T11:53:50.216Z,62.47
2023-02-23T11:54:49.242Z,62.37
2023-02-23T11:55:49.204Z,61.99
2023-02-23T11:56:49.212Z,62.50
2023-02-23T11:57:50.193Z,63.61
2023-02-23T11:58:50.183Z,63.28
2023-02-23T11:59:49.172Z,62.87
2023-02-23T12:00:49.188Z,62.47
2023-02-23T12:01:49.169Z,62.37
2023-02-23T12:02:49.209Z,62.37
2023-02-23T12:03:49.145Z,61.87
2023-02-23T12:04:49.204Z,62.47
2023-02-23T12:05:49.094Z,61.96
2023-02-23T12:06:49.107Z,62.47
2023-02-23T12:07:49.088Z,62.47
2023-02-23T12:08:49.090Z,62.77
2023-02-23T12:09:50.100Z,62.50
2023-02-23T12:10:49.088Z,63.31
2023-02-23T12:11:50.029Z,62.27
2023-02-23T12:12:49.021Z,63.92
2023-02-23T12:13:49.061Z,63.58
2023-02-23T12:14:48.983Z,63.58
2023-02-23T12:15:48.981Z,63.28
2023-02-23T12:16:49.005Z,63.18
2023-02-23T12:17:49.145Z,63.18
2023-02-23T12:18:48.960Z,63.18
2023-02-23T12:19:48.954Z,62.16
2023-02-23T12:20:48.912Z,62.30
2023-02-23T12:21:48.967Z,63.78
2023-02-23T12:22:49.937Z,63.28
2023-02-23T12:23:50.031Z,62.77
2023-02-23T12:24:48.891Z,62.27
2023-02-23T12:25:48.937Z,62.47
2023-02-23T12:26:48.887Z,62.47
2023-02-23T12:27:49.858Z,62.47
2023-02-23T12:28:48.835Z,62.44
2023-02-23T12:29:48.822Z,61.94
2023-02-23T12:30:48.885Z,61.43
2023-02-23T12:31:49.021Z,61.03
2023-02-23T12:32:48.823Z,61.25
2023-02-23T12:33:48.784Z,61.94
2023-02-23T12:34:48.837Z,61.36
2023-02-23T12:35:48.786Z,62.57
2023-02-23T12:36:48.752Z,62.27
2023-02-23T12:37:48.766Z,62.16
2023-02-23T12:38:48.765Z,62.16
2023-02-23T12:39:48.745Z,62.04
2023-02-23T12:40:50.483Z,61.96
2023-02-23T12:41:48.720Z,62.27
2023-02-23T12:42:49.673Z,62.30
2023-02-23T12:43:49.704Z,63.21
2023-02-23T12:44:48.655Z,62.27
2023-02-23T12:45:49.700Z,63.38
2023-02-23T12:46:48.650Z,63.18
2023-02-23T12:47:48.643Z,62.98
2023-02-23T12:48:48.631Z,62.87
2023-02-23T12:49:48.642Z,63.18
2023-02-23T12:50:49.590Z,63.25
2023-02-23T12:51:49.605Z,63.05
2023-02-23T12:52:48.568Z,62.16